Time;durP1;ratioP1;P1;durP2;ratioP2;P2;SDS_P1;SDS_P2;PMS_P1;PMS_P2;Temp;Humidity;BMP_temperature;BMP_pressure;BME280_temperature;BME280_humidity;BME280_pressure;Samples;Min_cycle;Max_cycle;Signal;HPM_P1;HPM_P2
2021/12/08 00:02:28;;;;;;;1.75;1.13;;;;;;;14.13;45.89;98929.19;21172652;28;20060;-75
2021/12/08 00:22:51;;;;;;;2.15;0.90;;;;;;;14.26;46.27;98902.00;21171421;28;20051;-75
2021/12/08 00:32:54;;;;;;;3.20;1.38;;;;;;;14.10;45.96;98845.72;21170450;28;20050;-75
2021/12/08 00:42:57;;;;;;;3.17;1.20;;;;;;;14.76;45.99;98948.53;21169670;28;20047;-75
2021/12/08 00:52:59;;;;;;;3.17;1.27;;;;;;;14.42;46.27;98881.63;21151064;28;20489;-75
2021/12/08 01:03:03;;;;;;;2.03;1.10;;;;;;;13.90;46.27;98797.84;21179028;28;20500;-75
2021/12/08 01:13:07;;;;;;;3.08;1.13;;;;;;;14.78;46.38;98934.97;21173896;28;20044;-76
2021/12/08 01:23:11;;;;;;;2.00;0.90;;;;;;;14.06;45.90;98832.66;21166555;28;20155;-75
2021/12/08 01:33:12;;;;;;;1.92;1.05;;;;;;;14.61;46.21;98901.94;21147874;28;20043;-75
2021/12/08 01:43:25;;;;;;;2.17;1.10;;;;;;;14.73;46.06;98900.63;21164944;28;20055;-75
2021/12/08 01:53:27;;;;;;;1.73;1.08;;;;;;;14.70;46.76;98916.19;21130787;28;20051;-75
2021/12/08 02:03:33;;;;;;;2.83;1.20;;;;;;;14.81;46.21;98915.06;21163636;28;20058;-75
2021/12/08 02:13:38;;;;;;;2.30;1.13;;;;;;;14.32;46.36;98841.59;21162409;28;20052;-74
2021/12/08 02:23:41;;;;;;;2.53;1.03;;;;;;;14.79;46.76;98899.16;21143299;28;20059;-75
2021/12/08 02:54:39;;;;;;;2.25;0.98;;;;;;;14.58;47.07;98844.19;21126937;28;20051;-75
2021/12/08 03:04:41;;;;;;;1.80;0.80;;;;;;;14.41;47.30;98829.94;21159014;28;20051;-75
2021/12/08 03:14:44;;;;;;;2.22;0.80;;;;;;;14.20;47.30;98792.91;21140820;28;20055;-75
2021/12/08 03:24:48;;;;;;;2.28;0.88;;;;;;;14.42;47.14;98836.13;21157264;28;20134;-75
2021/12/08 03:34:53;;;;;;;2.33;0.80;;;;;;;14.03;47.40;98779.47;21155769;28;20051;-75
2021/12/08 03:44:59;;;;;;;2.13;0.82;;;;;;;14.14;47.10;98786.38;21156554;28;20051;-75
2021/12/08 03:55:01;;;;;;;2.03;0.80;;;;;;;14.83;47.67;98900.50;21156095;28;20048;-75
2021/12/08 04:05:04;;;;;;;2.78;0.80;;;;;;;14.26;47.56;98812.81;21154970;28;20052;-75
2021/12/08 04:15:06;;;;;;;1.63;1.00;;;;;;;14.19;47.65;98818.00;21155453;28;20043;-75
2021/12/08 04:25:12;;;;;;;1.80;0.70;;;;;;;14.21;47.98;98824.03;21154964;28;20092;-75
2021/12/08 04:35:17;;;;;;;1.67;0.90;;;;;;;14.70;47.90;98914.38;21154524;28;20047;-75
2021/12/08 04:45:28;;;;;;;1.70;1.00;;;;;;;14.35;48.05;98857.34;21166192;28;20061;-75
2021/12/08 05:06:16;;;;;;;2.08;0.70;;;;;;;14.28;48.27;98853.63;21166572;28;20055;-75
2021/12/08 05:16:19;;;;;;;1.85;0.73;;;;;;;14.86;48.27;98948.38;21166484;28;20100;-74
2021/12/08 05:26:29;;;;;;;2.20;0.77;;;;;;;15.02;48.75;98955.63;21166578;28;20055;-74
2021/12/08 05:36:30;;;;;;;1.58;0.80;;;;;;;15.08;48.57;98935.38;21165707;28;20070;-71
2021/12/08 05:46:33;;;;;;;6.13;0.80;;;;;;;15.62;48.97;98964.34;21164881;27;20482;-71
2021/12/08 05:56:35;;;;;;;3.70;1.17;;;;;;;15.64;48.77;98886.41;21163113;28;20055;-74
2021/12/08 06:06:38;;;;;;;2.95;1.00;;;;;;;16.08;48.42;98923.56;21163104;28;20063;-72
2021/12/08 06:16:42;;;;;;;3.63;1.15;;;;;;;16.36;48.20;98966.09;21162325;28;20528;-76
2021/12/08 06:26:45;;;;;;;2.28;1.05;;;;;;;16.48;48.32;99003.31;21161715;28;20039;-71
2021/12/08 06:36:59;;;;;;;3.58;1.10;;;;;;;16.62;48.61;99056.31;21160482;28;20040;-71
2021/12/08 06:47:04;;;;;;;1.58;1.05;;;;;;;16.61;48.49;99033.13;21161137;28;20056;-72
2021/12/08 06:57:10;;;;;;;3.20;1.13;;;;;;;16.61;48.92;99043.88;21159267;28;20052;-72
2021/12/08 07:07:17;;;;;;;3.30;0.90;;;;;;;16.11;48.53;98943.84;21158208;28;20048;-71
2021/12/08 07:17:22;;;;;;;4.18;1.30;;;;;;;16.39;49.40;98975.63;21139734;28;20051;-72
2021/12/08 07:27:28;;;;;;;2.88;1.08;;;;;;;16.34;49.26;98983.38;21139385;28;20051;-72
2021/12/08 07:37:33;;;;;;;2.03;1.40;;;;;;;16.85;49.26;99071.69;21156728;28;20369;-72
2021/12/08 07:47:35;;;;;;;3.03;0.90;;;;;;;16.74;49.04;99059.47;21138346;28;20043;-72
2021/12/08 07:57:37;;;;;;;1.90;0.80;;;;;;;16.58;49.10;99021.91;21155913;28;20047;-74
2021/12/08 08:07:41;;;;;;;2.83;0.90;;;;;;;16.50;49.03;99020.09;21120261;28;20054;-73
2021/12/08 08:17:46;;;;;;;1.85;0.75;;;;;;;16.50;48.90;99025.47;21145719;28;20065;-72
2021/12/08 08:27:48;;;;;;;2.10;0.75;;;;;;;16.47;48.88;99068.78;21153083;28;20036;-73
2021/12/08 08:38:08;;;;;;;2.55;1.60;;;;;;;16.45;48.92;99014.41;21167014;28;20453;-72
2021/12/08 08:48:16;;;;;;;2.85;1.20;;;;;;;16.17;48.76;98985.28;21169543;28;20088;-73
2021/12/08 08:58:27;;;;;;;2.08;0.90;;;;;;;17.22;48.41;99169.69;21151422;28;20492;-72
2021/12/08 09:08:31;;;;;;;2.50;0.63;;;;;;;17.19;48.49;99153.88;21133572;28;20058;-72
2021/12/08 09:18:48;;;;;;;1.92;0.90;;;;;;;16.68;48.37;99069.03;21149030;28;20101;-72
2021/12/08 09:29:09;;;;;;;1.42;0.70;;;;;;;17.16;48.27;99173.06;21166397;28;20050;-73
2021/12/08 09:39:20;;;;;;;2.55;1.20;;;;;;;17.24;48.23;99208.03;21165662;28;20069;-72
2021/12/08 09:49:24;;;;;;;1.90;0.80;;;;;;;17.40;48.29;99239.38;21165089;28;20039;-72
2021/12/08 09:59:26;;;;;;;1.40;0.77;;;;;;;17.22;48.21;99214.56;21145781;28;20058;-72
2021/12/08 10:09:28;;;;;;;1.75;1.05;;;;;;;17.34;47.90;99229.31;21163355;28;20052;-72
2021/12/08 10:19:30;;;;;;;3.15;0.85;;;;;;;16.84;47.92;99122.91;21144069;28;20039;-72
2021/12/08 10:29:33;;;;;;;2.53;1.00;;;;;;;17.01;47.88;99137.16;21144770;28;20057;-71
2021/12/08 10:39:41;;;;;;;1.25;0.70;;;;;;;17.46;47.96;99208.25;21142030;28;20044;-72
2021/12/08 10:59:58;;;;;;;2.20;0.77;;;;;;;16.93;47.91;99114.66;21158864;28;20043;-71
2021/12/08 11:10:16;;;;;;;2.72;1.05;;;;;;;17.34;47.70;99172.00;21159654;28;20043;-71
2021/12/08 11:20:29;;;;;;;3.20;1.20;;;;;;;17.48;48.12;99227.75;21157729;28;20095;-71
2021/12/08 11:30:32;;;;;;;2.30;0.93;;;;;;;16.78;47.88;99113.69;21158519;28;20043;-71
2021/12/08 11:40:35;;;;;;;2.03;0.90;;;;;;;17.48;47.83;99265.41;21156664;28;20045;-73
2021/12/08 11:50:38;;;;;;;2.97;0.88;;;;;;;17.36;47.83;99269.50;21161627;28;20059;-72
2021/12/08 12:00:41;;;;;;;2.00;0.90;;;;;;;16.68;47.71;99157.72;21173358;28;20055;-71
2021/12/08 12:10:46;;;;;;;3.75;1.10;;;;;;;17.46;47.86;99337.38;21138281;28;20131;-74
2021/12/08 12:20:52;;;;;;;1.97;0.80;;;;;;;16.91;47.66;99234.94;21171805;28;20480;-73
2021/12/08 12:31:00;;;;;;;3.08;0.88;;;;;;;17.44;47.50;99325.97;21153142;28;20066;-71
2021/12/08 12:41:04;;;;;;;2.70;0.90;;;;;;;16.71;47.73;99225.56;21170336;28;20054;-71
2021/12/08 12:51:16;;;;;;;3.30;0.82;;;;;;;17.22;47.91;99312.22;21169897;28;20048;-71
2021/12/08 13:01:35;;;;;;;4.38;1.23;;;;;;;16.29;47.85;99152.22;21152904;28;20246;-71
2021/12/08 13:12:14;;;;;;;3.08;1.10;;;;;;;17.34;48.02;99330.69;21151747;28;20055;-71
2021/12/08 13:22:43;;;;;;;4.63;1.20;;;;;;;17.33;48.25;99345.16;21154509;28;20304;-72
2021/12/08 13:32:46;;;;;;;7.50;1.63;;;;;;;17.07;46.98;99333.59;21166551;28;20051;-73
2021/12/08 13:42:55;;;;;;;4.30;1.40;;;;;;;16.71;47.82;99276.59;21165363;28;20040;-73
2021/12/08 13:53:10;;;;;;;4.57;1.33;;;;;;;17.20;47.07;99372.56;21140436;28;20630;-74
2021/12/08 14:03:21;;;;;;;9.57;1.83;;;;;;;16.95;46.44;99357.25;21163967;28;20058;-72
2021/12/08 14:13:26;;;;;;;7.20;1.52;;;;;;;17.08;47.21;99342.50;21144261;28;20101;-74
2021/12/08 14:23:30;;;;;;;7.15;1.02;;;;;;;16.67;47.54;99268.88;21162201;28;20561;-73
2021/12/08 14:33:32;;;;;;;8.53;1.23;;;;;;;16.84;47.87;99295.78;21161273;28;20042;-72
2021/12/08 14:43:36;;;;;;;6.10;1.23;;;;;;;16.72;48.01;99281.81;21160772;28;20043;-72
2021/12/08 14:53:39;;;;;;;4.85;1.30;;;;;;;16.33;47.97;99223.38;21151271;28;20040;-72
2021/12/08 15:03:43;;;;;;;3.85;1.13;;;;;;;17.39;48.04;99422.47;21158607;28;20051;-72
2021/12/08 15:13:48;;;;;;;3.03;0.90;;;;;;;16.79;48.08;99339.28;21158066;28;20051;-72
2021/12/08 15:24:01;;;;;;;2.70;1.00;;;;;;;17.46;48.10;99439.63;21122722;28;20132;-73
2021/12/08 15:34:21;;;;;;;3.72;0.90;;;;;;;17.44;48.62;99441.66;21158335;28;20047;-72
2021/12/08 15:44:23;;;;;;;4.47;0.93;;;;;;;17.43;48.53;99464.19;21121930;28;20091;-71
2021/12/08 15:54:25;;;;;;;4.35;1.00;;;;;;;16.87;48.72;99368.00;21156240;28;20044;-72
2021/12/08 16:04:27;;;;;;;2.83;1.00;;;;;;;17.46;48.85;99479.97;21155798;28;20064;-73
2021/12/08 16:14:34;;;;;;;4.07;1.05;;;;;;;17.43;48.69;99501.00;21120704;28;20040;-72
2021/12/08 16:24:37;;;;;;;3.17;0.77;;;;;;;17.43;48.52;99501.00;21155059;28;20082;-72
2021/12/08 16:34:39;;;;;;;2.17;1.00;;;;;;;17.30;48.59;99488.06;21137874;28;20043;-72
2021/12/08 16:44:42;;;;;;;2.78;0.68;;;;;;;16.77;48.23;99410.31;21151903;28;20136;-73
2021/12/08 16:54:47;;;;;;;5.13;0.93;;;;;;;17.43;48.90;99539.50;21169103;28;20079;-72
2021/12/08 17:04:48;;;;;;;2.43;0.70;;;;;;;17.10;48.40;99459.63;21168440;28;20048;-73
2021/12/08 17:14:50;;;;;;;4.47;0.80;;;;;;;16.86;48.50;99438.03;21167644;28;20040;-73
2021/12/08 17:24:52;;;;;;;2.80;1.05;;;;;;;17.36;48.23;99525.06;21167196;28;20105;-73
2021/12/08 17:34:54;;;;;;;1.83;0.90;;;;;;;17.08;48.30;99487.69;21166625;28;20059;-73
2021/12/08 17:44:56;;;;;;;1.40;0.73;;;;;;;17.29;48.17;99532.09;21165445;28;20047;-73
2021/12/08 17:54:58;;;;;;;1.50;1.00;;;;;;;17.36;48.31;99552.78;21163408;28;20051;-73
2021/12/08 18:05:00;;;;;;;3.03;0.80;;;;;;;17.20;48.19;99526.69;21164772;28;20104;-73
2021/12/08 18:15:05;;;;;;;3.03;0.90;;;;;;;16.75;48.17;99468.75;21121685;28;20485;-73
2021/12/08 18:25:08;;;;;;;2.07;0.87;;;;;;;17.35;48.22;99566.41;21162374;28;20055;-73
2021/12/08 18:35:25;;;;;;;1.42;0.80;;;;;;;16.76;48.01;99491.94;21126390;28;20139;-73
2021/12/08 18:45:27;;;;;;;3.03;1.00;;;;;;;17.05;48.23;99548.03;21160866;28;20418;-73
2021/12/08 18:55:29;;;;;;;3.90;1.10;;;;;;;17.13;48.18;99595.59;21141758;28;20069;-73
2021/12/08 19:05:32;;;;;;;2.33;0.98;;;;;;;16.55;48.05;99532.66;21158670;28;20070;-72
2021/12/08 19:15:36;;;;;;;4.07;0.70;;;;;;;16.98;48.42;99634.84;21158488;28;20104;-72
2021/12/08 19:25:41;;;;;;;1.50;0.80;;;;;;;16.86;48.40;99643.19;21157711;28;20097;-72
2021/12/08 19:35:44;;;;;;;2.72;0.88;;;;;;;16.72;48.43;99650.00;21156969;28;20047;-72
2021/12/08 19:45:50;;;;;;;2.95;0.85;;;;;;;16.52;48.71;99644.81;21158013;28;20378;-72
2021/12/08 19:55:52;;;;;;;1.52;1.00;;;;;;;15.89;48.73;99563.50;21156106;28;20048;-72
2021/12/08 20:05:54;;;;;;;1.90;0.90;;;;;;;16.24;48.66;99644.13;21155510;28;20172;-73
2021/12/08 20:15:56;;;;;;;4.55;1.00;;;;;;;15.92;48.42;99641.00;21149426;28;20048;-73
2021/12/08 20:25:57;;;;;;;1.92;1.10;;;;;;;15.45;48.68;99585.69;21173090;28;20063;-72
2021/12/08 20:35:59;;;;;;;2.05;1.00;;;;;;;15.98;48.76;99697.75;21172137;28;20082;-72
2021/12/08 20:46:03;;;;;;;2.33;0.98;;;;;;;15.23;48.97;99603.91;21152074;28;20101;-72
2021/12/08 20:56:05;;;;;;;3.13;0.93;;;;;;;15.67;48.71;99698.94;21169440;28;20108;-72
2021/12/08 21:06:07;;;;;;;1.73;0.98;;;;;;;15.03;48.80;99602.34;21168843;28;20055;-72
2021/12/08 21:16:09;;;;;;;3.13;1.27;;;;;;;14.90;48.99;99597.34;21167728;28;20058;-72
2021/12/08 21:26:16;;;;;;;2.03;0.95;;;;;;;15.04;49.11;99639.72;21166918;28;20047;-72
2021/12/08 21:36:18;;;;;;;3.92;1.27;;;;;;;15.33;49.52;99702.22;21166294;28;20048;-72
2021/12/08 21:46:21;;;;;;;2.55;1.25;;;;;;;15.12;49.33;99691.75;21165295;28;20492;-72
2021/12/08 21:56:24;;;;;;;3.78;1.30;;;;;;;14.60;49.51;99623.38;21146459;28;20043;-72
2021/12/08 22:06:28;;;;;;;1.55;1.00;;;;;;;15.10;49.46;99721.38;21164055;28;20059;-73
2021/12/08 22:16:30;;;;;;;4.15;1.40;;;;;;;15.07;49.64;99727.88;21129219;28;20070;-73
2021/12/08 22:26:32;;;;;;;2.13;1.30;;;;;;;15.07;49.66;99751.16;21162405;28;20055;-72
2021/12/08 22:36:33;;;;;;;2.45;1.45;;;;;;;15.05;49.93;99762.03;21161409;28;20462;-72
2021/12/08 22:46:36;;;;;;;3.42;1.13;;;;;;;14.11;49.30;99604.72;21160656;28;20055;-72
2021/12/08 22:56:38;;;;;;;2.42;1.10;;;;;;;14.35;49.36;99647.94;21159614;28;20135;-72
2021/12/08 23:06:40;;;;;;;2.92;1.40;;;;;;;14.86;49.64;99738.78;21158937;28;20492;-72
2021/12/08 23:16:42;;;;;;;1.83;1.10;;;;;;;14.98;49.80;99749.34;21158513;28;20047;-72
2021/12/08 23:26:44;;;;;;;3.63;1.20;;;;;;;15.06;49.77;99765.56;21157787;28;20047;-72
2021/12/08 23:36:50;;;;;;;2.35;1.10;;;;;;;15.01;49.52;99741.00;21156986;28;20046;-73
2021/12/08 23:46:53;;;;;;;;;;;;;;;15.08;49.69;99763.59;21158515;28;20055;-73
2021/12/08 23:56:55;;;;;;;2.33;1.33;;;;;;;14.42;49.59;99663.44;21155995;28;19942;-73
